メインページ
METAR-TAF:

METAR-TAF

空港 :

ロサンゼルス, カリフォルニア州, アメリカ合衆国

ロサンゼルス国際空港

緯度: 33-56-17N, 経度: 118-23-20W, 海抜: 38m

現時点の気象観測

当レポートは14分前の10:53(UTC)に作成
東/北東の風 3kt
気温 18°C
湿度 88%
気圧 1011 hPa
視程: 16.1km
高度2200ftの雲はほとんどない

METAR: KLAX 201053Z 06003KT 10SM FEW022 18/16 A2986 RMK AO2 SLP109 T01780156

時間: 04:07 (11:07 UTC)

予報

当レポートは2時間12分前の08:55(UTC)に作成
予報は20日の 09時(UTC)から 21日の 12時(UTC)まで有効
変向風 3kt
視程: 10km
高度2500ftの雲は散在している
20日の 1200時(UTC)から
東/南東の風 6kt
視程: 10km
高度2000ftの千切れ雲あり
20日の 1600時(UTC)から
南西の風 6kt
視程: 10km
高度2500ftの千切れ雲あり
20日の 2000時(UTC)から
西の風 12kt
視程: 10km
高度3500ftの雲は散在している
21日の 0300時(UTC)から
西の風 7kt
視程: 10km
高度2500ftの千切れ雲あり
21日の 0900時(UTC)から
の風 6kt
視程: 10km
高度2500ftの曇り

TAF: KLAX 200855Z 2009/2112 VRB03KT P6SM SCT025 FM201200 12006KT P6SM BKN020 FM201600 23006KT P6SM BKN025 FM202000 26012KT P6SM SCT035 FM210300 26007KT P6SM BKN025 FM210900 17006KT P6SM OVC025

4,000以上の空港の気象観測と天気予報(METAR報とTAF報)

利用可能な観測所は地図上に黄色い丸と赤い丸で示す。

丸の上にカーソルを重ねると観測所名を参照できる。

次にクリックすると気象観測と天気予報を参照できる。

マップの切り替え:黒色「×」印の緑ボタンをクリックして拡大、「-」印の緑ボタンをクリックして縮小、緑色の三角印をクリックして隣りの地図に切り替え


METAR-TAF: